createdAt,value
2022-09-20T00:07:38.012Z,97882.53
2022-09-20T00:17:39.420Z,97883.06
2022-09-20T00:27:40.888Z,97890.84
2022-09-20T00:37:43.552Z,97884.44
2022-09-20T00:47:54.107Z,97879.06
2022-09-20T00:57:55.725Z,97878.34
2022-09-20T01:07:57.799Z,97885.41
2022-09-20T01:18:02.126Z,97879.03
2022-09-20T01:28:03.568Z,97869.66
2022-09-20T01:38:20.252Z,97860.16
2022-09-20T01:48:40.076Z,97870.47
2022-09-20T01:59:24.489Z,97862.78
2022-09-20T02:10:00.378Z,97861.84
2022-09-20T02:20:26.833Z,97860.00
2022-09-20T02:30:55.533Z,97869.47
2022-09-20T02:41:14.524Z,97872.00
2022-09-20T02:51:52.154Z,97876.41
2022-09-20T03:02:21.544Z,97883.66
2022-09-20T03:12:49.200Z,97884.00
2022-09-20T03:23:22.482Z,97886.47
2022-09-20T03:33:39.786Z,97894.81
2022-09-20T03:43:50.453Z,97892.66
2022-09-20T03:54:10.633Z,97886.84
2022-09-20T04:04:31.485Z,97882.78
2022-09-20T04:14:50.285Z,97889.75
2022-09-20T04:25:12.480Z,97896.59
2022-09-20T04:35:56.575Z,97896.69
2022-09-20T04:46:19.518Z,97919.00
2022-09-20T04:56:44.224Z,97917.09
2022-09-20T05:07:33.041Z,97921.91
2022-09-20T05:17:34.434Z,97928.34
2022-09-20T05:27:50.364Z,97930.97
2022-09-20T05:38:00.980Z,97942.59
2022-09-20T05:48:13.842Z,97946.59
2022-09-20T05:58:43.481Z,97949.94
2022-09-20T06:08:53.663Z,97950.63
2022-09-20T06:18:58.072Z,97962.06
2022-09-20T06:29:06.494Z,97958.00
2022-09-20T06:39:38.808Z,97961.22
2022-09-20T06:49:44.511Z,97961.16
2022-09-20T06:59:46.265Z,97960.09
2022-09-20T07:09:47.720Z,97963.56
2022-09-20T07:19:49.273Z,97954.72
2022-09-20T07:29:50.762Z,97960.63
2022-09-20T07:39:52.682Z,97964.41
2022-09-20T07:49:54.784Z,97958.31
2022-09-20T07:59:56.246Z,97965.03
2022-09-20T08:09:57.747Z,97967.19
2022-09-20T08:19:59.275Z,97961.56
2022-09-20T08:30:01.213Z,97974.53
2022-09-20T08:40:03.148Z,97983.56
2022-09-20T08:50:10.039Z,97986.34
2022-09-20T09:00:20.680Z,97964.41
2022-09-20T09:10:22.086Z,97960.97
2022-09-20T09:20:24.498Z,97958.38
2022-09-20T09:30:30.412Z,97942.91
2022-09-20T09:40:32.662Z,97934.84
2022-09-20T09:50:34.745Z,97926.25
2022-09-20T10:00:42.949Z,97929.19
2022-09-20T10:10:58.018Z,97925.75
2022-09-20T10:21:22.933Z,97912.16
2022-09-20T10:31:36.867Z,97896.03
2022-09-20T10:42:26.589Z,97894.50
2022-09-20T10:52:43.582Z,97898.28
2022-09-20T11:02:52.668Z,97907.19
2022-09-20T11:13:05.468Z,97921.38
2022-09-20T11:23:20.978Z,97907.41
2022-09-20T11:33:36.984Z,97935.22
2022-09-20T11:43:45.952Z,97953.16
2022-09-20T11:53:53.308Z,97937.03
2022-09-20T12:04:32.219Z,97958.75
2022-09-20T12:14:34.674Z,97942.31
2022-09-20T12:24:44.512Z,97938.78
2022-09-20T12:34:47.160Z,97933.06
2022-09-20T12:44:51.718Z,97920.91
2022-09-20T12:54:56.357Z,97908.84
2022-09-20T13:04:59.644Z,97905.44
2022-09-20T13:15:01.913Z,97931.53
2022-09-20T13:25:09.110Z,97935.09
2022-09-20T13:35:10.504Z,97933.72
2022-09-20T13:45:16.715Z,97931.53
2022-09-20T13:55:31.108Z,97932.50
2022-09-20T14:05:33.482Z,97935.09
2022-09-20T14:15:44.054Z,97932.53
2022-09-20T14:26:05.873Z,97933.50
2022-09-20T14:36:17.757Z,97924.38
2022-09-20T14:46:19.281Z,97931.25
2022-09-20T14:56:34.149Z,97929.88
2022-09-20T15:06:42.936Z,97934.47
2022-09-20T15:16:44.499Z,97946.31
2022-09-20T15:26:46.251Z,97950.97
2022-09-20T15:36:48.698Z,97945.22
2022-09-20T15:46:50.975Z,97949.69
2022-09-20T15:56:53.319Z,97953.31
2022-09-20T16:06:54.697Z,97968.19
2022-09-20T16:16:56.618Z,97973.94
2022-09-20T16:27:00.786Z,97981.06
2022-09-20T16:37:08.818Z,97988.25
2022-09-20T16:47:12.950Z,98003.13
2022-09-20T16:57:15.427Z,98013.47
2022-09-20T17:07:16.868Z,98028.34
2022-09-20T17:17:22.424Z,98043.22
2022-09-20T17:27:24.156Z,98059.88
2022-09-20T17:37:25.603Z,98070.97
2022-09-20T17:47:27.006Z,98077.63
2022-09-20T17:57:28.417Z,98086.56
2022-09-20T18:07:31.199Z,98096.94
2022-09-20T18:17:32.790Z,98116.91
2022-09-20T18:27:34.197Z,98140.75
2022-09-20T18:37:37.079Z,98151.72
2022-09-20T18:47:38.572Z,98160.44
2022-09-20T18:57:40.152Z,98171.22
2022-09-20T19:07:53.959Z,98181.06
2022-09-20T19:18:01.258Z,98184.34
2022-09-20T19:28:02.877Z,98198.63
2022-09-20T19:38:17.172Z,98205.06
2022-09-20T19:48:36.955Z,98207.66
2022-09-20T19:58:40.140Z,98217.28
2022-09-20T20:08:50.597Z,98220.72
2022-09-20T20:19:27.802Z,98229.56
2022-09-20T20:29:29.242Z,98243.81
2022-09-20T20:39:40.535Z,98253.38
2022-09-20T20:49:42.375Z,98254.38
2022-09-20T20:59:45.275Z,98252.19
2022-09-20T21:09:46.847Z,98253.63
2022-09-20T21:19:48.345Z,98262.34
2022-09-20T21:29:51.061Z,98270.69
2022-09-20T21:39:54.383Z,98273.97
2022-09-20T21:49:55.915Z,98271.94
2022-09-20T21:59:57.305Z,98284.09
2022-09-20T22:09:58.871Z,98285.56
2022-09-20T22:20:00.244Z,98287.59
2022-09-20T22:30:04.943Z,98287.72
2022-09-20T22:40:07.053Z,98287.31
2022-09-20T22:50:08.539Z,98284.94
2022-09-20T23:00:10.668Z,98293.28
2022-09-20T23:10:12.040Z,98284.53
2022-09-20T23:20:13.611Z,98297.41
2022-09-20T23:30:15.013Z,98298.69
2022-09-20T23:40:16.406Z,98308.19
2022-09-20T23:50:17.881Z,98303.16
